Time;durP1;ratioP1;P1;durP2;ratioP2;P2;SDS_P1;SDS_P2;PMS_P1;PMS_P2;Temp;Humidity;BMP_temperature;BMP_pressure;BME280_temperature;BME280_humidity;BME280_pressure;Samples;Min_cycle;Max_cycle;Signal;HPM_P1;HPM_P2
2023/03/25 00:01:03;;;;;;;10.43;2.40;;;10.10;99.90;;;;;;5028448;28;20040;-73
2023/03/25 00:03:34;;;;;;;11.63;2.58;;;10.10;99.90;;;;;;5015037;28;20053;-73
2023/03/25 00:06:05;;;;;;;12.63;3.38;;;10.10;99.90;;;;;;5006579;28;20040;-73
2023/03/25 00:08:31;;;;;;;11.95;2.92;;;10.10;99.90;;;;;;5028342;28;20595;-73
2023/03/25 00:11:00;;;;;;;9.10;2.45;;;10.20;99.90;;;;;;5031113;28;20051;-72
2023/03/25 00:13:26;;;;;;;12.00;2.47;;;10.20;99.90;;;;;;5032303;28;20052;-72
2023/03/25 00:15:57;;;;;;;12.20;3.17;;;10.20;99.90;;;;;;5010124;28;20048;-73
2023/03/25 00:18:24;;;;;;;;;;;10.10;99.90;;;;;;5016743;28;20056;-72
2023/03/25 00:20:53;;;;;;;13.00;2.60;;;10.20;99.90;;;;;;5012917;28;20042;-73
2023/03/25 00:23:20;;;;;;;11.93;2.85;;;10.20;99.90;;;;;;5024805;28;20048;-72
2023/03/25 00:25:46;;;;;;;11.43;2.80;;;10.20;99.90;;;;;;5011012;28;20106;-73
2023/03/25 00:28:14;;;;;;;11.75;2.83;;;10.20;99.90;;;;;;5017131;28;20097;-72
2023/03/25 00:30:41;;;;;;;16.75;3.63;;;10.20;99.90;;;;;;5028981;28;20052;-73
2023/03/25 00:33:09;;;;;;;14.15;3.22;;;10.20;99.90;;;;;;5022491;28;20044;-73
2023/03/25 00:35:51;;;;;;;12.10;2.67;;;10.20;99.90;;;;;;5024635;28;20169;-73
2023/03/25 00:38:20;;;;;;;13.93;2.55;;;10.20;99.90;;;;;;5028093;28;20466;-73
2023/03/25 00:40:47;;;;;;;12.40;3.03;;;10.20;99.90;;;;;;5028574;28;20931;-72
2023/03/25 00:43:13;;;;;;;15.27;3.35;;;10.10;99.90;;;;;;5023501;28;20053;-74
2023/03/25 00:45:39;;;;;;;12.93;3.08;;;10.00;99.90;;;;;;4994911;28;20047;-73
2023/03/25 00:48:05;;;;;;;11.82;3.65;;;9.90;99.90;;;;;;5023875;28;20041;-74
2023/03/25 00:50:31;;;;;;;12.80;2.63;;;9.80;99.90;;;;;;5012398;28;20071;-72
2023/03/25 00:52:57;;;;;;;12.27;3.10;;;9.70;99.90;;;;;;4995491;28;20557;-73
2023/03/25 00:55:22;;;;;;;17.45;3.40;;;9.60;99.90;;;;;;5011226;28;20522;-72
2023/03/25 00:57:49;;;;;;;11.52;2.90;;;9.50;99.90;;;;;;5021676;28;20560;-72
2023/03/25 01:00:16;;;;;;;13.15;3.38;;;9.40;99.90;;;;;;5014850;28;20060;-73
2023/03/25 01:02:44;;;;;;;15.70;3.33;;;9.30;99.90;;;;;;5013542;28;20106;-73
2023/03/25 01:05:10;;;;;;;14.55;3.25;;;9.30;99.90;;;;;;5025825;28;20407;-72
2023/03/25 01:07:37;;;;;;;12.35;3.75;;;9.20;99.90;;;;;;5013442;28;20076;-73
2023/03/25 01:10:04;;;;;;;15.30;3.88;;;9.20;99.90;;;;;;5012771;28;20051;-72
2023/03/25 01:12:30;;;;;;;15.55;3.90;;;9.10;99.90;;;;;;5029940;28;20767;-71
2023/03/25 01:14:56;;;;;;;16.60;3.90;;;9.00;99.90;;;;;;5029385;28;20675;-72
2023/03/25 01:17:22;;;;;;;16.13;3.80;;;9.00;99.90;;;;;;5015822;28;20086;-73
2023/03/25 01:19:48;;;;;;;18.67;4.35;;;9.00;99.90;;;;;;5008572;28;20064;-73
2023/03/25 01:22:14;;;;;;;16.73;3.92;;;8.90;99.90;;;;;;5012318;28;20574;-73
2023/03/25 01:24:40;;;;;;;14.65;4.10;;;8.90;99.90;;;;;;5008824;28;20048;-72
2023/03/25 01:27:06;;;;;;;14.60;3.70;;;8.90;99.90;;;;;;5031170;28;20067;-73
2023/03/25 01:29:31;;;;;;;17.08;4.80;;;8.90;99.90;;;;;;5031720;28;20151;-72
2023/03/25 01:31:58;;;;;;;13.45;3.67;;;8.90;99.90;;;;;;5028864;28;20056;-73
2023/03/25 01:34:37;;;;;;;17.77;4.88;;;8.90;99.90;;;;;;4996434;28;20059;-72
2023/03/25 01:37:03;;;;;;;14.30;3.75;;;8.90;99.90;;;;;;5027656;28;21601;-73
2023/03/25 01:39:29;;;;;;;15.88;4.18;;;8.80;99.90;;;;;;4997309;28;20044;-73
2023/03/25 01:41:55;;;;;;;13.70;3.90;;;8.80;99.90;;;;;;5012451;28;20040;-72
2023/03/25 01:44:21;;;;;;;16.17;3.75;;;8.80;99.90;;;;;;5029300;28;20084;-73
2023/03/25 01:46:51;;;;;;;13.52;3.92;;;8.80;99.90;;;;;;5030120;28;20071;-72
2023/03/25 01:49:22;;;;;;;;;;;8.80;99.90;;;;;;4997162;28;20060;-73
2023/03/25 01:51:52;;;;;;;12.18;3.60;;;8.80;99.90;;;;;;5030057;28;19995;-73
2023/03/25 01:54:18;;;;;;;12.57;3.90;;;8.80;99.90;;;;;;5025189;28;20055;-72
2023/03/25 01:56:47;;;;;;;19.17;4.60;;;8.80;99.90;;;;;;5012157;28;20538;-72
2023/03/25 01:59:17;;;;;;;17.65;4.43;;;8.80;99.90;;;;;;5010796;28;20048;-72
2023/03/25 02:01:45;;;;;;;17.88;4.03;;;8.80;99.90;;;;;;5013700;28;20059;-71
2023/03/25 02:04:13;;;;;;;16.77;3.95;;;8.80;99.90;;;;;;5011757;28;20048;-72
2023/03/25 02:06:52;;;;;;;16.17;4.40;;;8.80;99.90;;;;;;5028375;28;20053;-72
2023/03/25 02:09:21;;;;;;;17.95;4.65;;;8.80;99.90;;;;;;5029120;28;20055;-72
2023/03/25 02:11:47;;;;;;;16.27;3.25;;;8.80;99.90;;;;;;5028624;28;20037;-72
2023/03/25 02:14:18;;;;;;;17.48;4.53;;;8.90;99.90;;;;;;4995954;28;20068;-72
2023/03/25 02:16:47;;;;;;;;;;;8.80;99.90;;;;;;5013862;28;20117;-71
2023/03/25 02:19:34;;;;;;;21.92;4.57;;;8.80;99.90;;;;;;5012135;28;19920;-72
2023/03/25 02:22:19;;;;;;;26.05;5.45;;;8.80;99.90;;;;;;5009646;28;20234;-72
2023/03/25 02:25:07;;;;;;;19.90;4.90;;;8.80;99.90;;;;;;5013676;28;20074;-72
2023/03/25 02:27:58;;;;;;;20.13;5.05;;;8.80;99.90;;;;;;5044557;28;20048;-72
2023/03/25 02:30:42;;;;;;;19.90;5.47;;;8.80;99.90;;;;;;5012515;28;21376;-72
2023/03/25 02:33:20;;;;;;;20.67;4.82;;;8.80;99.90;;;;;;5031348;28;20040;-72
2023/03/25 02:36:16;;;;;;;20.58;5.88;;;8.80;99.90;;;;;;5012673;28;20067;-72
2023/03/25 02:38:56;;;;;;;19.15;5.35;;;8.70;99.90;;;;;;5012103;28;20052;-71
2023/03/25 02:41:30;;;;;;;19.98;5.10;;;8.70;99.90;;;;;;5010964;28;20582;-72
2023/03/25 02:44:04;;;;;;;16.40;4.70;;;8.70;99.90;;;;;;5030668;28;20569;-72
2023/03/25 02:46:31;;;;;;;20.30;5.22;;;8.70;99.90;;;;;;5030582;28;20053;-72
2023/03/25 02:49:30;;;;;;;26.63;5.45;;;8.70;99.90;;;;;;5013578;28;20049;-72
2023/03/25 02:52:11;;;;;;;16.55;4.80;;;8.70;99.90;;;;;;5025633;28;20068;-72
2023/03/25 02:54:40;;;;;;;19.92;4.80;;;8.70;99.90;;;;;;5021312;28;20099;-72
2023/03/25 02:57:08;;;;;;;21.48;5.40;;;8.70;99.90;;;;;;5021218;28;20410;-72
2023/03/25 02:59:37;;;;;;;18.02;5.20;;;8.70;99.90;;;;;;5023080;28;20068;-72
2023/03/25 03:02:07;;;;;;;16.45;4.70;;;8.70;99.90;;;;;;5027698;28;20578;-72
2023/03/25 03:04:57;;;;;;;16.85;4.78;;;8.70;99.90;;;;;;5029889;28;20115;-72
2023/03/25 03:07:26;;;;;;;20.65;5.68;;;8.70;99.90;;;;;;5026001;28;20580;-71
2023/03/25 03:09:59;;;;;;;22.00;5.53;;;8.70;99.90;;;;;;5009357;28;20144;-72
2023/03/25 03:12:34;;;;;;;17.52;5.28;;;8.70;99.90;;;;;;5008888;28;21045;-72
2023/03/25 03:15:14;;;;;;;18.13;5.80;;;8.70;99.90;;;;;;4993575;28;20045;-72
2023/03/25 03:17:56;;;;;;;18.77;4.73;;;8.70;99.90;;;;;;5010436;28;20037;-72
2023/03/25 03:20:49;;;;;;;22.45;4.95;;;8.70;99.90;;;;;;5008786;28;20882;-71
2023/03/25 03:23:23;;;;;;;19.15;4.90;;;8.60;99.90;;;;;;4991262;28;20098;-72
2023/03/25 03:26:17;;;;;;;22.15;4.82;;;8.60;99.90;;;;;;5009447;28;20049;-73
2023/03/25 03:29:14;;;;;;;21.30;5.40;;;8.60;99.90;;;;;;4993440;28;20052;-73
2023/03/25 03:31:52;;;;;;;18.52;5.07;;;8.60;99.90;;;;;;4985083;28;20061;-72
2023/03/25 03:34:33;;;;;;;20.13;4.50;;;8.60;99.90;;;;;;4994776;28;20045;-72
2023/03/25 03:37:00;;;;;;;17.40;4.75;;;8.60;99.90;;;;;;5010572;28;20053;-72
2023/03/25 03:39:31;;;;;;;22.42;4.65;;;8.60;99.90;;;;;;4984784;28;20095;-71
2023/03/25 03:42:05;;;;;;;20.55;4.82;;;8.60;99.90;;;;;;4994924;28;20076;-72
2023/03/25 03:44:36;;;;;;;25.70;5.45;;;8.60;99.90;;;;;;4994123;28;20437;-72
2023/03/25 03:47:16;;;;;;;16.83;4.80;;;8.60;99.90;;;;;;4993060;28;20132;-74
2023/03/25 03:49:47;;;;;;;16.23;5.40;;;8.50;99.90;;;;;;5007906;28;20041;-73
2023/03/25 03:52:24;;;;;;;19.10;4.88;;;8.60;99.90;;;;;;5010156;28;20125;-73
2023/03/25 03:55:16;;;;;;;20.58;4.95;;;8.70;99.90;;;;;;5010185;28;20041;-72
2023/03/25 03:57:50;;;;;;;19.60;5.80;;;8.70;99.90;;;;;;4988068;28;20053;-73
2023/03/25 04:00:30;;;;;;;22.38;6.15;;;8.60;99.90;;;;;;5010673;28;20057;-72
2023/03/25 04:03:23;;;;;;;19.95;5.00;;;8.70;99.90;;;;;;5011240;28;20562;-73
2023/03/25 04:06:06;;;;;;;19.40;5.07;;;8.60;99.90;;;;;;5009925;28;20083;-73
2023/03/25 04:08:50;;;;;;;17.05;5.40;;;8.60;99.90;;;;;;4994399;28;20639;-73
2023/03/25 04:11:23;;;;;;;18.98;5.53;;;8.60;99.90;;;;;;5009541;28;20044;-73
2023/03/25 04:13:54;;;;;;;19.85;5.78;;;8.60;99.90;;;;;;5008494;28;20041;-73
2023/03/25 04:16:21;;;;;;;23.45;6.18;;;8.60;99.90;;;;;;4994313;28;20076;-72
2023/03/25 04:18:47;;;;;;;18.90;6.05;;;8.60;99.90;;;;;;5007960;28;20491;-73
2023/03/25 04:21:14;;;;;;;23.02;6.47;;;8.60;99.90;;;;;;4994229;28;20055;-73
2023/03/25 04:23:40;;;;;;;19.20;5.95;;;8.60;99.90;;;;;;5010538;28;20051;-73
2023/03/25 04:26:09;;;;;;;20.67;7.15;;;8.60;99.90;;;;;;4999039;28;21132;-73
2023/03/25 04:28:35;;;;;;;19.83;6.95;;;8.60;99.90;;;;;;5013999;28;20053;-73
2023/03/25 04:31:06;;;;;;;24.23;6.85;;;8.60;99.90;;;;;;4987194;28;20084;-73
2023/03/25 04:33:31;;;;;;;21.48;6.80;;;8.60;99.90;;;;;;5028793;28;20056;-73
2023/03/25 04:36:00;;;;;;;19.52;6.35;;;8.60;99.90;;;;;;5011976;28;20041;-73
2023/03/25 04:38:26;;;;;;;21.42;7.45;;;8.50;99.90;;;;;;4997092;28;20107;-72
2023/03/25 04:40:52;;;;;;;23.90;7.40;;;8.50;99.90;;;;;;5026665;28;20049;-73
2023/03/25 04:43:18;;;;;;;23.05;7.75;;;8.50;99.90;;;;;;4998915;28;20053;-73
2023/03/25 04:45:52;;;;;;;18.77;7.10;;;8.50;99.90;;;;;;4995043;28;20063;-72
2023/03/25 04:48:40;;;;;;;17.30;7.10;;;8.50;99.90;;;;;;4997609;28;20649;-73
2023/03/25 04:51:09;;;;;;;19.67;7.28;;;8.50;99.90;;;;;;5010973;28;20072;-73
2023/03/25 04:53:36;;;;;;;21.33;7.05;;;8.50;99.90;;;;;;4995602;28;20171;-73
2023/03/25 04:56:02;;;;;;;23.52;7.57;;;8.50;99.90;;;;;;5011195;28;20051;-73
2023/03/25 04:58:28;;;;;;;23.40;7.75;;;8.50;99.90;;;;;;4994987;28;20045;-73
2023/03/25 05:00:54;;;;;;;20.33;6.82;;;8.50;99.90;;;;;;4996273;28;21249;-73
2023/03/25 05:03:32;;;;;;;22.10;6.95;;;8.50;99.90;;;;;;4996311;28;20052;-73
2023/03/25 05:06:01;;;;;;;26.38;7.55;;;8.50;99.90;;;;;;5003699;28;20048;-73
2023/03/25 05:08:30;;;;;;;22.88;7.68;;;8.50;99.90;;;;;;4996540;28;20179;-73
2023/03/25 05:10:56;;;;;;;18.95;6.70;;;8.50;99.90;;;;;;5011696;28;20035;-72
2023/03/25 05:13:22;;;;;;;21.60;7.55;;;8.50;99.90;;;;;;5013128;28;20068;-72
2023/03/25 05:15:51;;;;;;;19.40;6.53;;;8.50;99.90;;;;;;5011968;28;20160;-73
2023/03/25 05:18:22;;;;;;;20.27;6.75;;;8.50;99.90;;;;;;4994319;28;20045;-73
2023/03/25 05:20:49;;;;;;;20.48;6.53;;;8.50;99.90;;;;;;5011269;28;20029;-73
2023/03/25 05:23:16;;;;;;;18.63;6.60;;;8.50;99.90;;;;;;5012596;28;20052;-73
2023/03/25 05:25:51;;;;;;;20.23;6.22;;;8.50;99.90;;;;;;5000336;28;20049;-73
2023/03/25 05:28:17;;;;;;;21.73;6.47;;;8.50;99.90;;;;;;5011298;28;20075;-72
2023/03/25 05:30:45;;;;;;;19.63;6.30;;;8.50;99.90;;;;;;5013852;28;20518;-73
2023/03/25 05:33:16;;;;;;;21.77;6.82;;;8.50;99.90;;;;;;4995375;28;20041;-73
2023/03/25 05:35:49;;;;;;;21.25;6.55;;;8.50;99.90;;;;;;4996201;28;20135;-72
2023/03/25 05:38:17;;;;;;;23.40;8.20;;;8.50;99.90;;;;;;4985598;28;20053;-72
2023/03/25 05:40:47;;;;;;;23.98;6.43;;;8.50;99.90;;;;;;4996696;28;20044;-72
2023/03/25 05:43:21;;;;;;;22.25;6.93;;;8.50;99.90;;;;;;4996444;28;20722;-72
2023/03/25 05:45:47;;;;;;;29.02;7.60;;;8.50;99.90;;;;;;5010990;28;20068;-72
2023/03/25 05:48:13;;;;;;;21.98;6.65;;;8.50;99.90;;;;;;5012074;28;20499;-73
2023/03/25 05:50:41;;;;;;;25.60;6.95;;;8.40;99.90;;;;;;4979155;28;20108;-73
2023/03/25 05:53:11;;;;;;;23.95;7.20;;;8.40;99.90;;;;;;5009753;28;20044;-73
2023/03/25 05:55:37;;;;;;;19.25;6.95;;;8.40;99.90;;;;;;4995667;28;20569;-73
2023/03/25 05:58:03;;;;;;;23.98;7.28;;;8.40;99.90;;;;;;5011783;28;20040;-72
2023/03/25 06:00:32;;;;;;;22.55;7.60;;;8.40;99.90;;;;;;4992817;28;20083;-73
2023/03/25 06:03:00;;;;;;;24.60;7.85;;;8.40;99.90;;;;;;5010770;28;20533;-72
2023/03/25 06:05:28;;;;;;;20.70;7.10;;;8.40;99.90;;;;;;5011239;28;21170;-72
2023/03/25 06:07:55;;;;;;;18.63;6.85;;;8.40;99.90;;;;;;4995953;28;20052;-74
2023/03/25 06:10:21;;;;;;;20.63;6.82;;;8.40;99.90;;;;;;5010751;28;20124;-74
2023/03/25 06:12:51;;;;;;;21.17;6.18;;;8.50;99.90;;;;;;5011326;28;20048;-74
2023/03/25 06:15:17;;;;;;;;;;;8.50;99.90;;;;;;5010899;28;20036;-74
2023/03/25 06:17:46;;;;;;;20.40;7.15;;;8.40;99.90;;;;;;5013624;28;19935;-74
2023/03/25 06:20:15;;;;;;;22.23;6.97;;;8.50;99.90;;;;;;4994009;28;20087;-73
2023/03/25 06:22:43;;;;;;;18.50;6.70;;;8.50;99.90;;;;;;4993572;28;20846;-75
2023/03/25 06:25:16;;;;;;;18.63;6.53;;;8.50;99.90;;;;;;4988437;28;20669;-76
2023/03/25 06:27:42;;;;;;;22.48;6.90;;;8.50;99.90;;;;;;5009574;28;20491;-74
2023/03/25 06:30:10;;;;;;;24.48;6.43;;;8.50;99.90;;;;;;4977935;28;20045;-74
2023/03/25 06:32:37;;;;;;;25.80;7.13;;;8.50;99.90;;;;;;5002029;28;20072;-74
2023/03/25 06:35:04;;;;;;;25.58;6.55;;;8.50;99.90;;;;;;4993652;28;20689;-76
2023/03/25 06:37:30;;;;;;;25.23;7.47;;;8.50;99.90;;;;;;4977370;28;20044;-74
2023/03/25 06:39:58;;;;;;;21.92;6.35;;;8.50;99.90;;;;;;4991383;28;20114;-74
2023/03/25 06:42:28;;;;;;;20.08;7.03;;;8.50;99.90;;;;;;4979507;28;20056;-75
2023/03/25 06:44:54;;;;;;;17.20;5.82;;;8.50;99.90;;;;;;5024671;28;20041;-74
2023/03/25 06:47:21;;;;;;;21.80;6.80;;;8.50;99.90;;;;;;5009413;28;20045;-74
2023/03/25 06:49:47;;;;;;;23.92;6.57;;;8.50;99.90;;;;;;4991063;28;20056;-74
2023/03/25 06:52:22;;;;;;;21.98;5.80;;;8.50;99.90;;;;;;4976334;28;20446;-75
2023/03/25 06:54:48;;;;;;;20.15;5.35;;;8.60;99.90;;;;;;4993814;28;20040;-74
2023/03/25 06:57:14;;;;;;;22.88;5.43;;;8.60;99.90;;;;;;4977434;28;20436;-74
2023/03/25 06:59:40;;;;;;;18.58;5.60;;;8.70;99.90;;;;;;5025503;28;20106;-74
2023/03/25 07:02:09;;;;;;;24.10;6.47;;;8.70;99.90;;;;;;5007664;28;20495;-74
2023/03/25 07:04:35;;;;;;;22.63;5.32;;;8.80;99.90;;;;;;4992604;28;20098;-74
2023/03/25 07:07:00;;;;;;;18.77;4.50;;;8.80;99.90;;;;;;4995080;28;20573;-74
2023/03/25 07:09:26;;;;;;;19.10;5.07;;;8.80;99.90;;;;;;5012476;28;20053;-74
2023/03/25 07:11:52;;;;;;;22.80;5.35;;;8.80;99.90;;;;;;4995767;28;20495;-75
2023/03/25 07:14:18;;;;;;;24.27;6.28;;;8.80;99.90;;;;;;5027238;28;20040;-74
2023/03/25 07:16:50;;;;;;;23.42;5.50;;;8.80;99.90;;;;;;5028466;28;20047;-74
2023/03/25 07:19:15;;;;;;;25.90;5.50;;;8.90;99.90;;;;;;5025580;28;20049;-76
2023/03/25 07:21:41;;;;;;;24.88;6.13;;;9.00;99.90;;;;;;5013132;28;20552;-74
2023/03/25 07:24:07;;;;;;;20.25;5.28;;;9.10;99.90;;;;;;5011422;28;20402;-74
2023/03/25 07:26:33;;;;;;;23.65;5.90;;;9.20;99.90;;;;;;5044567;28;21518;-76
2023/03/25 07:28:59;;;;;;;25.13;5.95;;;9.30;99.90;;;;;;4995897;28;20040;-73
2023/03/25 07:31:27;;;;;;;22.08;5.40;;;9.30;99.90;;;;;;5010491;28;20086;-74
2023/03/25 07:33:54;;;;;;;22.15;5.95;;;9.30;99.90;;;;;;5011542;28;20036;-74
2023/03/25 07:36:22;;;;;;;20.67;4.47;;;9.20;99.90;;;;;;5010677;28;20078;-76
2023/03/25 07:38:48;;;;;;;21.95;4.93;;;9.20;99.90;;;;;;5028320;28;20661;-72
2023/03/25 07:41:14;;;;;;;19.25;4.32;;;9.20;99.90;;;;;;5011183;28;20094;-72
2023/03/25 07:43:41;;;;;;;19.55;4.25;;;9.10;99.90;;;;;;5014468;28;20036;-72
2023/03/25 07:46:07;;;;;;;16.40;4.10;;;9.10;99.90;;;;;;4993562;28;20067;-73
2023/03/25 07:48:33;;;;;;;16.80;4.00;;;9.00;99.90;;;;;;5011007;28;20044;-73
2023/03/25 07:51:00;;;;;;;17.77;3.90;;;9.00;99.90;;;;;;5025593;28;20045;-72
2023/03/25 07:53:26;;;;;;;16.13;4.10;;;8.90;99.90;;;;;;4994392;28;20116;-72
2023/03/25 07:55:52;;;;;;;21.40;3.83;;;8.90;99.90;;;;;;5008283;28;20053;-72
2023/03/25 07:58:21;;;;;;;23.42;4.80;;;9.00;99.90;;;;;;5009040;28;20051;-73
2023/03/25 08:00:47;;;;;;;19.42;4.25;;;8.90;99.90;;;;;;5012302;28;20055;-72
2023/03/25 08:03:13;;;;;;;23.27;4.45;;;8.80;99.90;;;;;;4996979;28;20045;-73
2023/03/25 08:05:45;;;;;;;20.23;4.63;;;8.80;99.90;;;;;;5014028;28;20079;-72
2023/03/25 08:08:12;;;;;;;19.95;4.88;;;8.80;99.90;;;;;;5027828;28;20041;-72
2023/03/25 08:10:38;;;;;;;23.85;4.95;;;8.80;99.90;;;;;;5013175;28;20642;-72
2023/03/25 08:13:03;;;;;;;20.13;3.80;;;8.80;99.90;;;;;;5010519;28;20044;-73
2023/03/25 08:15:32;;;;;;;21.80;4.35;;;8.70;99.90;;;;;;5018991;28;20132;-73
2023/03/25 08:17:58;;;;;;;25.13;4.25;;;8.70;99.90;;;;;;5027824;28;20055;-73
2023/03/25 08:20:24;;;;;;;23.63;4.28;;;8.60;99.90;;;;;;5008267;28;20052;-72
2023/03/25 08:22:50;;;;;;;24.63;4.72;;;8.60;99.90;;;;;;5013938;28;20128;-73
2023/03/25 08:25:16;;;;;;;26.17;4.80;;;8.60;99.90;;;;;;5006797;28;20416;-73
2023/03/25 08:27:42;;;;;;;22.55;4.97;;;8.60;99.90;;;;;;5013211;28;20059;-73
2023/03/25 08:30:09;;;;;;;25.83;5.38;;;8.70;99.90;;;;;;5012053;28;20623;-73
2023/03/25 08:32:37;;;;;;;22.30;4.25;;;8.70;99.90;;;;;;5021659;28;20060;-73
2023/03/25 08:35:06;;;;;;;24.42;5.20;;;8.70;99.90;;;;;;5013167;28;20040;-73
2023/03/25 08:37:36;;;;;;;23.40;6.10;;;8.80;99.90;;;;;;4998366;28;20071;-73
2023/03/25 08:40:10;;;;;;;22.90;5.07;;;8.90;99.90;;;;;;5028635;28;20268;-73
2023/03/25 08:42:39;;;;;;;19.38;4.43;;;9.00;99.90;;;;;;5018941;28;20045;-73
2023/03/25 08:45:06;;;;;;;21.40;4.47;;;9.00;99.90;;;;;;5023043;28;20132;-74
2023/03/25 08:47:31;;;;;;;22.67;4.63;;;9.10;99.90;;;;;;5028952;28;20052;-72
2023/03/25 08:49:57;;;;;;;25.70;4.15;;;9.10;99.90;;;;;;5025379;28;20033;-73
2023/03/25 08:52:23;;;;;;;21.90;5.28;;;9.10;99.90;;;;;;5006223;28;20041;-72
2023/03/25 08:54:49;;;;;;;24.20;5.30;;;9.10;99.90;;;;;;5029186;28;20132;-72
2023/03/25 08:57:15;;;;;;;17.80;3.88;;;9.10;99.90;;;;;;5021213;28;20044;-74
2023/03/25 08:59:41;;;;;;;20.92;4.28;;;9.10;99.90;;;;;;5012685;28;20580;-73
2023/03/25 09:02:08;;;;;;;22.45;4.45;;;9.10;99.90;;;;;;5019457;28;20052;-73
2023/03/25 09:04:38;;;;;;;20.77;4.43;;;9.10;99.90;;;;;;5029038;28;20056;-72
2023/03/25 09:07:09;;;;;;;21.83;5.43;;;9.00;99.90;;;;;;5009289;28;20060;-73
2023/03/25 09:09:37;;;;;;;21.02;4.68;;;9.20;99.90;;;;;;5028221;28;20091;-70
2023/03/25 09:12:05;;;;;;;19.75;4.88;;;9.20;99.90;;;;;;4995068;28;20063;-72
2023/03/25 09:14:31;;;;;;;23.58;4.63;;;9.30;99.90;;;;;;5030197;28;20040;-72
2023/03/25 09:16:57;;;;;;;17.80;4.18;;;9.50;99.90;;;;;;5010566;28;20066;-71
2023/03/25 09:19:23;;;;;;;16.85;3.95;;;9.50;99.90;;;;;;5005198;28;20075;-72
2023/03/25 09:21:49;;;;;;;21.60;4.22;;;9.50;99.90;;;;;;5010892;28;20115;-71
2023/03/25 09:24:14;;;;;;;18.77;3.78;;;9.60;99.90;;;;;;4987775;28;21090;-71
2023/03/25 09:26:40;;;;;;;20.63;5.35;;;9.60;99.90;;;;;;5011219;28;20501;-72
2023/03/25 09:29:09;;;;;;;21.83;4.43;;;9.60;99.90;;;;;;5030650;28;20052;-71
2023/03/25 09:31:35;;;;;;;19.33;4.47;;;9.70;99.90;;;;;;5012910;28;20040;-72
2023/03/25 09:34:01;;;;;;;16.98;4.22;;;9.70;99.90;;;;;;4997549;28;20143;-74
2023/03/25 09:36:27;;;;;;;18.63;4.15;;;9.80;99.90;;;;;;4996227;28;20075;-74
2023/03/25 09:38:53;;;;;;;20.45;4.15;;;9.80;99.90;;;;;;5014664;28;20032;-74
2023/03/25 09:41:21;;;;;;;19.20;4.45;;;9.80;99.90;;;;;;5028568;28;20126;-74
2023/03/25 09:43:55;;;;;;;22.55;4.28;;;9.80;99.90;;;;;;5028517;28;20048;-73
2023/03/25 09:46:21;;;;;;;19.73;3.97;;;9.70;99.90;;;;;;5031305;28;20104;-71
2023/03/25 09:48:51;;;;;;;16.48;3.70;;;9.60;99.90;;;;;;5028459;28;20139;-72
2023/03/25 09:51:28;;;;;;;18.27;3.28;;;9.70;99.90;;;;;;5029346;28;20333;-71
2023/03/25 09:54:29;;;;;;;14.93;3.53;;;9.70;99.90;;;;;;5012597;28;20571;-71
2023/03/25 09:57:00;;;;;;;21.55;4.93;;;9.60;99.90;;;;;;5011501;28;20045;-71
2023/03/25 09:59:38;;;;;;;21.05;5.13;;;9.60;99.90;;;;;;5029450;28;21448;-71
2023/03/25 10:02:13;;;;;;;19.45;4.47;;;9.70;99.90;;;;;;5010710;28;20517;-72
2023/03/25 10:05:03;;;;;;;17.50;4.53;;;9.80;99.90;;;;;;5028246;28;20049;-71
2023/03/25 10:07:49;;;;;;;18.98;4.88;;;9.90;99.90;;;;;;5028553;28;20773;-71
2023/03/25 10:10:52;;;;;;;24.70;5.50;;;9.90;99.90;;;;;;5046879;28;20399;-71
2023/03/25 10:13:26;;;;;;;19.30;3.95;;;9.90;99.90;;;;;;5028026;28;20139;-71
2023/03/25 10:16:04;;;;;;;19.85;4.97;;;10.00;99.90;;;;;;5027010;28;20060;-71
2023/03/25 10:18:44;;;;;;;22.25;4.53;;;10.00;99.90;;;;;;5012147;28;20072;-72
2023/03/25 10:21:20;;;;;;;15.43;3.72;;;10.10;99.90;;;;;;5026582;28;20040;-72
2023/03/25 10:24:26;;;;;;;22.20;4.18;;;10.10;99.90;;;;;;5028318;28;20060;-72
2023/03/25 10:27:04;;;;;;;14.00;4.43;;;10.10;99.90;;;;;;5025389;28;20063;-71
2023/03/25 10:29:39;;;;;;;17.58;3.85;;;10.00;99.90;;;;;;5027265;28;20078;-72
2023/03/25 10:32:28;;;;;;;19.42;4.45;;;10.00;99.90;;;;;;5012031;28;20124;-72
2023/03/25 10:34:54;;;;;;;18.90;4.10;;;10.00;99.90;;;;;;5026688;28;20040;-72
2023/03/25 10:37:46;;;;;;;20.20;5.32;;;9.90;99.90;;;;;;5022493;28;20502;-71
2023/03/25 10:40:48;;;;;;;22.73;4.95;;;9.90;99.90;;;;;;5012132;28;20131;-72
2023/03/25 10:43:39;;;;;;;15.15;3.60;;;9.90;99.90;;;;;;4995290;28;20060;-72
2023/03/25 10:46:17;;;;;;;;;;;10.00;99.90;;;;;;5025351;28;20072;-71
2023/03/25 10:48:45;;;;;;;17.70;3.47;;;10.10;99.90;;;;;;5010369;28;20030;-72
2023/03/25 10:51:17;;;;;;;16.30;4.30;;;10.20;99.90;;;;;;5011048;28;20059;-72
2023/03/25 10:53:48;;;;;;;17.13;3.75;;;10.20;99.90;;;;;;5028925;28;20808;-72
2023/03/25 10:56:18;;;;;;;17.60;3.10;;;10.30;99.90;;;;;;5012514;28;20613;-72
2023/03/25 10:58:50;;;;;;;19.05;3.78;;;10.40;99.90;;;;;;5026298;28;20052;-72
2023/03/25 11:01:18;;;;;;;17.98;3.50;;;10.40;99.90;;;;;;5025563;28;20053;-73
2023/03/25 11:03:48;;;;;;;18.98;3.78;;;10.40;99.90;;;;;;5028924;28;20049;-73
2023/03/25 11:06:25;;;;;;;14.07;3.42;;;10.40;99.90;;;;;;5025971;28;20081;-72
2023/03/25 11:09:37;;;;;;;17.92;3.55;;;10.40;99.90;;;;;;5007827;28;20079;-73
2023/03/25 11:12:05;;;;;;;18.73;3.85;;;10.40;99.90;;;;;;5025008;28;20539;-72
2023/03/25 11:14:39;;;;;;;16.30;3.70;;;10.40;99.90;;;;;;5015109;28;20114;-73
2023/03/25 11:17:15;;;;;;;18.27;4.38;;;10.40;99.90;;;;;;5027914;28;20057;-72
2023/03/25 11:19:45;;;;;;;22.58;5.22;;;10.60;99.90;;;;;;4992281;28;20133;-72
2023/03/25 11:22:51;;;;;;;17.08;3.58;;;10.70;99.90;;;;;;5006902;28;20041;-73
2023/03/25 11:25:24;;;;;;;16.92;3.80;;;10.80;99.90;;;;;;4928519;28;20785;-72
2023/03/25 11:27:57;;;;;;;19.25;3.88;;;10.80;99.90;;;;;;4945498;28;20058;-73
2023/03/25 11:30:26;;;;;;;17.88;4.03;;;10.90;99.90;;;;;;5010132;28;20087;-72
2023/03/25 11:33:16;;;;;;;14.63;3.88;;;11.10;99.90;;;;;;5015663;28;20049;-74
2023/03/25 11:35:45;;;;;;;15.27;3.90;;;11.20;99.90;;;;;;5032173;28;20056;-72
2023/03/25 11:38:22;;;;;;;15.63;3.58;;;11.30;99.90;;;;;;5032075;28;20558;-72
2023/03/25 11:40:56;;;;;;;19.35;3.42;;;11.40;99.90;;;;;;5017277;28;20120;-73
2023/03/25 11:43:33;;;;;;;15.27;3.40;;;11.70;99.90;;;;;;5016461;28;20101;-72
2023/03/25 11:46:11;;;;;;;12.57;2.97;;;11.80;99.90;;;;;;5031545;28;20183;-74
2023/03/25 11:48:40;;;;;;;15.30;3.65;;;11.80;99.90;;;;;;5017630;28;20710;-72
2023/03/25 11:51:13;;;;;;;14.82;3.22;;;11.90;99.90;;;;;;5034103;28;20056;-73
2023/03/25 11:53:47;;;;;;;11.85;2.65;;;11.90;99.90;;;;;;5048606;28;20045;-74
2023/03/25 11:56:21;;;;;;;12.45;2.67;;;11.90;99.90;;;;;;5032898;28;20055;-72
2023/03/25 11:58:48;;;;;;;15.90;3.65;;;11.80;99.90;;;;;;5015827;28;20398;-74
2023/03/25 12:01:26;;;;;;;15.45;3.25;;;11.80;99.90;;;;;;4991695;28;20076;-76
2023/03/25 12:04:10;;;;;;;18.50;3.85;;;11.80;99.90;;;;;;5018077;28;20048;-72
2023/03/25 12:07:11;;;;;;;13.77;3.03;;;11.80;99.90;;;;;;5028858;28;20056;-73
2023/03/25 12:09:51;;;;;;;13.13;3.03;;;11.70;99.90;;;;;;4969671;28;20054;-73
2023/03/25 12:12:39;;;;;;;13.52;3.10;;;11.50;99.90;;;;;;4992482;28;20084;-72
2023/03/25 12:15:05;;;;;;;13.90;3.60;;;11.50;99.90;;;;;;5028986;28;20076;-72
2023/03/25 12:17:40;;;;;;;11.63;2.92;;;11.50;99.90;;;;;;5009927;28;20053;-72
2023/03/25 12:20:35;;;;;;;14.73;3.10;;;11.50;99.90;;;;;;5011507;28;20037;-72
2023/03/25 12:23:22;;;;;;;13.45;2.83;;;11.60;99.90;;;;;;4956911;28;20748;-71
2023/03/25 12:26:05;;;;;;;14.57;3.83;;;11.70;99.90;;;;;;4971558;28;20057;-73
2023/03/25 12:29:07;;;;;;;13.32;3.03;;;11.70;99.90;;;;;;5011618;28;20041;-73
2023/03/25 12:32:01;;;;;;;17.17;3.42;;;11.80;99.90;;;;;;4954753;28;20539;-72
2023/03/25 12:34:32;;;;;;;14.93;3.28;;;12.00;99.90;;;;;;5011347;28;20050;-72
2023/03/25 12:37:11;;;;;;;16.25;3.22;;;12.10;99.90;;;;;;4995872;28;20060;-73
2023/03/25 12:39:51;;;;;;;13.35;2.90;;;12.10;99.90;;;;;;5002306;28;20052;-73
2023/03/25 12:42:23;;;;;;;14.25;3.30;;;12.00;99.90;;;;;;5011665;28;20040;-72
2023/03/25 12:44:58;;;;;;;14.52;3.08;;;12.00;99.90;;;;;;5010817;28;20152;-73
2023/03/25 12:47:38;;;;;;;16.63;3.63;;;11.80;99.90;;;;;;5010584;28;20057;-72
2023/03/25 12:50:31;;;;;;;13.85;3.55;;;11.70;99.90;;;;;;4997703;28;20048;-71
2023/03/25 12:53:34;;;;;;;12.90;3.35;;;11.70;99.90;;;;;;4996429;28;20099;-74
2023/03/25 12:56:16;;;;;;;15.23;3.30;;;11.60;99.90;;;;;;5011862;28;21375;-72
2023/03/25 12:58:47;;;;;;;12.60;3.35;;;11.70;99.90;;;;;;5006533;28;20551;-72
2023/03/25 13:01:35;;;;;;;14.55;2.97;;;11.70;99.90;;;;;;5028045;28;20037;-71
2023/03/25 13:04:07;;;;;;;11.80;2.67;;;11.80;99.90;;;;;;5007928;28;20168;-72
2023/03/25 13:06:57;;;;;;;11.90;2.75;;;11.90;99.90;;;;;;5011224;28;20110;-74
2023/03/25 13:09:32;;;;;;;15.68;3.65;;;11.90;99.90;;;;;;5028475;28;20053;-71
2023/03/25 13:12:23;;;;;;;12.02;2.97;;;11.90;99.90;;;;;;5028293;28;20308;-72